Terminal Aerodrome Forecast
Issued by NWS

Home | Current Version | Previous Version | Graphics & Text | Print | Product List | Glossary On
Versions: 1 2 3 4 5 6 7 8 9 10 11 12 13 14
000
FTUS43 KABR 202324
TAFPIR
TAF
KPIR 202324Z 2100/2124 VRB03KT P6SM VCSH OVC050
     FM210400 VRB05KT P6SM -SN OVC035
     FM211200 35007KT 3SM -SN OVC035
     FM211500 36007KT 1SM -SN OVC035
     FM211800 36009KT 2SM -SN OVC020
     FM212200 36010KT P6SM OVC040=

USA.gov is the U.S. government's official web portal to all federal, state and local government web resources and services.